sensor_id;sensor_type;location;lat;lon;timestamp;temperature;humidity
16114;DHT22;8161;-33.910;151.156;2022-11-02T00:02:10;17.80;94.50
16114;DHT22;8161;-33.910;151.156;2022-11-02T00:04:37;17.80;93.80
16114;DHT22;8161;-33.910;151.156;2022-11-02T00:07:05;17.90;94.30
16114;DHT22;8161;-33.910;151.156;2022-11-02T00:09:38;18.10;94.50
16114;DHT22;8161;-33.910;151.156;2022-11-02T00:12:06;18.20;94.00
16114;DHT22;8161;-33.910;151.156;2022-11-02T00:14:34;18.20;93.90
16114;DHT22;8161;-33.910;151.156;2022-11-02T00:17:01;18.20;93.70
16114;DHT22;8161;-33.910;151.156;2022-11-02T00:19:29;18.20;93.70
16114;DHT22;8161;-33.910;151.156;2022-11-02T00:21:56;18.30;94.50
16114;DHT22;8161;-33.910;151.156;2022-11-02T00:24:25;18.40;92.90
16114;DHT22;8161;-33.910;151.156;2022-11-02T00:26:52;18.40;91.90
16114;DHT22;8161;-33.910;151.156;2022-11-02T00:29:20;18.50;92.10
16114;DHT22;8161;-33.910;151.156;2022-11-02T00:31:49;18.50;92.30
16114;DHT22;8161;-33.910;151.156;2022-11-02T00:34:17;18.60;90.90
16114;DHT22;8161;-33.910;151.156;2022-11-02T00:36:45;18.60;91.30
16114;DHT22;8161;-33.910;151.156;2022-11-02T00:39:12;18.70;90.50
16114;DHT22;8161;-33.910;151.156;2022-11-02T00:41:39;18.80;91.30
16114;DHT22;8161;-33.910;151.156;2022-11-02T00:44:07;19.10;91.00
16114;DHT22;8161;-33.910;151.156;2022-11-02T00:46:34;19.10;90.10
16114;DHT22;8161;-33.910;151.156;2022-11-02T00:49:01;19.00;89.00
16114;DHT22;8161;-33.910;151.156;2022-11-02T00:51:29;18.80;89.20
16114;DHT22;8161;-33.910;151.156;2022-11-02T00:53:56;18.90;89.20
16114;DHT22;8161;-33.910;151.156;2022-11-02T00:56:24;18.80;87.70
16114;DHT22;8161;-33.910;151.156;2022-11-02T00:58:52;18.80;90.30
16114;DHT22;8161;-33.910;151.156;2022-11-02T01:01:19;18.90;90.70
16114;DHT22;8161;-33.910;151.156;2022-11-02T01:03:47;18.70;90.90
16114;DHT22;8161;-33.910;151.156;2022-11-02T01:06:15;19.20;90.70
16114;DHT22;8161;-33.910;151.156;2022-11-02T01:08:42;19.30;89.70
16114;DHT22;8161;-33.910;151.156;2022-11-02T01:11:14;19.30;86.30
16114;DHT22;8161;-33.910;151.156;2022-11-02T01:13:44;19.30;85.50
16114;DHT22;8161;-33.910;151.156;2022-11-02T01:16:13;19.40;84.80
16114;DHT22;8161;-33.910;151.156;2022-11-02T01:18:40;19.40;84.60
16114;DHT22;8161;-33.910;151.156;2022-11-02T01:21:09;19.50;84.30
16114;DHT22;8161;-33.910;151.156;2022-11-02T01:23:37;19.60;84.90
16114;DHT22;8161;-33.910;151.156;2022-11-02T01:26:06;19.40;84.50
16114;DHT22;8161;-33.910;151.156;2022-11-02T01:28:34;19.50;85.50
16114;DHT22;8161;-33.910;151.156;2022-11-02T01:31:06;19.80;82.70
16114;DHT22;8161;-33.910;151.156;2022-11-02T01:33:34;19.80;82.80
16114;DHT22;8161;-33.910;151.156;2022-11-02T01:36:05;19.60;82.10
16114;DHT22;8161;-33.910;151.156;2022-11-02T01:38:33;19.70;82.70
16114;DHT22;8161;-33.910;151.156;2022-11-02T01:41:00;19.80;84.60
16114;DHT22;8161;-33.910;151.156;2022-11-02T01:43:32;19.90;85.10
16114;DHT22;8161;-33.910;151.156;2022-11-02T01:46:20;19.90;83.70
16114;DHT22;8161;-33.910;151.156;2022-11-02T01:49:17;20.00;81.50
16114;DHT22;8161;-33.910;151.156;2022-11-02T01:51:49;20.10;82.70
16114;DHT22;8161;-33.910;151.156;2022-11-02T01:54:21;20.30;82.50
16114;DHT22;8161;-33.910;151.156;2022-11-02T01:56:56;20.30;81.70
16114;DHT22;8161;-33.910;151.156;2022-11-02T01:59:30;20.40;80.60
16114;DHT22;8161;-33.910;151.156;2022-11-02T02:01:59;20.50;80.70
16114;DHT22;8161;-33.910;151.156;2022-11-02T02:04:27;20.40;78.00
16114;DHT22;8161;-33.910;151.156;2022-11-02T02:06:56;20.40;78.80
16114;DHT22;8161;-33.910;151.156;2022-11-02T02:09:25;20.50;80.00
16114;DHT22;8161;-33.910;151.156;2022-11-02T02:11:52;20.80;79.80
16114;DHT22;8161;-33.910;151.156;2022-11-02T02:14:20;20.60;77.90
16114;DHT22;8161;-33.910;151.156;2022-11-02T02:19:47;20.80;79.60
16114;DHT22;8161;-33.910;151.156;2022-11-02T02:22:37;20.80;77.50
16114;DHT22;8161;-33.910;151.156;2022-11-02T02:25:25;20.70;77.50
16114;DHT22;8161;-33.910;151.156;2022-11-02T02:41:40;21.20;73.30
16114;DHT22;8161;-33.910;151.156;2022-11-02T02:44:18;21.40;75.10
16114;DHT22;8161;-33.910;151.156;2022-11-02T02:46:55;21.30;74.10
16114;DHT22;8161;-33.910;151.156;2022-11-02T02:49:29;21.30;76.70
16114;DHT22;8161;-33.910;151.156;2022-11-02T02:51:58;21.40;76.80
16114;DHT22;8161;-33.910;151.156;2022-11-02T02:54:34;21.40;78.00
16114;DHT22;8161;-33.910;151.156;2022-11-02T02:57:19;21.50;77.80
16114;DHT22;8161;-33.910;151.156;2022-11-02T02:59:47;21.60;75.00
16114;DHT22;8161;-33.910;151.156;2022-11-02T03:02:24;21.40;74.80
16114;DHT22;8161;-33.910;151.156;2022-11-02T03:04:53;21.50;74.70
16114;DHT22;8161;-33.910;151.156;2022-11-02T03:07:24;21.20;73.40
16114;DHT22;8161;-33.910;151.156;2022-11-02T03:10:26;21.20;74.80
16114;DHT22;8161;-33.910;151.156;2022-11-02T03:13:13;21.20;74.40
16114;DHT22;8161;-33.910;151.156;2022-11-02T03:15:53;21.40;75.10
16114;DHT22;8161;-33.910;151.156;2022-11-02T03:24:18;21.50;73.20
16114;DHT22;8161;-33.910;151.156;2022-11-02T03:35:29;21.60;73.30
16114;DHT22;8161;-33.910;151.156;2022-11-02T03:40:49;22.10;72.70
16114;DHT22;8161;-33.910;151.156;2022-11-02T03:43:19;22.10;71.70
16114;DHT22;8161;-33.910;151.156;2022-11-02T03:45:54;22.50;70.90
16114;DHT22;8161;-33.910;151.156;2022-11-02T03:48:30;22.30;70.40
16114;DHT22;8161;-33.910;151.156;2022-11-02T03:51:01;22.20;70.80
16114;DHT22;8161;-33.910;151.156;2022-11-02T03:56:48;22.10;70.10
16114;DHT22;8161;-33.910;151.156;2022-11-02T03:59:17;22.20;70.90
16114;DHT22;8161;-33.910;151.156;2022-11-02T04:01:48;22.30;69.50
16114;DHT22;8161;-33.910;151.156;2022-11-02T04:04:16;22.20;69.90
16114;DHT22;8161;-33.910;151.156;2022-11-02T04:06:45;22.40;68.20
16114;DHT22;8161;-33.910;151.156;2022-11-02T04:09:19;22.50;67.70
16114;DHT22;8161;-33.910;151.156;2022-11-02T04:11:46;22.50;66.50
16114;DHT22;8161;-33.910;151.156;2022-11-02T04:14:26;22.20;65.10
16114;DHT22;8161;-33.910;151.156;2022-11-02T04:17:11;21.90;66.80
16114;DHT22;8161;-33.910;151.156;2022-11-02T04:19:52;22.00;67.20
16114;DHT22;8161;-33.910;151.156;2022-11-02T04:22:19;22.10;67.40
16114;DHT22;8161;-33.910;151.156;2022-11-02T04:25:00;22.10;67.00
16114;DHT22;8161;-33.910;151.156;2022-11-02T04:27:41;22.40;68.00
16114;DHT22;8161;-33.910;151.156;2022-11-02T04:30:10;22.80;67.70
16114;DHT22;8161;-33.910;151.156;2022-11-02T04:32:44;23.00;69.10
16114;DHT22;8161;-33.910;151.156;2022-11-02T04:35:25;23.10;68.00
16114;DHT22;8161;-33.910;151.156;2022-11-02T04:37:53;23.20;66.90
16114;DHT22;8161;-33.910;151.156;2022-11-02T04:40:34;22.90;66.30
16114;DHT22;8161;-33.910;151.156;2022-11-02T04:43:11;22.70;66.10
16114;DHT22;8161;-33.910;151.156;2022-11-02T04:45:39;22.50;66.60
16114;DHT22;8161;-33.910;151.156;2022-11-02T04:48:08;22.50;65.20
16114;DHT22;8161;-33.910;151.156;2022-11-02T04:50:36;22.60;66.10
16114;DHT22;8161;-33.910;151.156;2022-11-02T04:53:04;22.70;66.00
16114;DHT22;8161;-33.910;151.156;2022-11-02T04:55:35;22.60;66.30
16114;DHT22;8161;-33.910;151.156;2022-11-02T04:58:02;22.60;67.30
16114;DHT22;8161;-33.910;151.156;2022-11-02T05:00:29;22.70;67.50
16114;DHT22;8161;-33.910;151.156;2022-11-02T05:02:57;22.80;66.20
16114;DHT22;8161;-33.910;151.156;2022-11-02T05:05:24;22.80;67.00
16114;DHT22;8161;-33.910;151.156;2022-11-02T05:07:51;22.80;65.80
16114;DHT22;8161;-33.910;151.156;2022-11-02T05:10:19;22.90;64.20
16114;DHT22;8161;-33.910;151.156;2022-11-02T05:12:47;22.80;64.40
16114;DHT22;8161;-33.910;151.156;2022-11-02T05:15:15;22.70;64.30
16114;DHT22;8161;-33.910;151.156;2022-11-02T05:17:42;22.60;65.20
16114;DHT22;8161;-33.910;151.156;2022-11-02T05:20:09;22.70;66.40
16114;DHT22;8161;-33.910;151.156;2022-11-02T05:22:40;22.90;67.20
16114;DHT22;8161;-33.910;151.156;2022-11-02T05:25:11;23.10;66.70
16114;DHT22;8161;-33.910;151.156;2022-11-02T05:27:39;23.10;65.90
16114;DHT22;8161;-33.910;151.156;2022-11-02T05:30:07;22.90;65.10
16114;DHT22;8161;-33.910;151.156;2022-11-02T05:32:34;22.80;62.40
16114;DHT22;8161;-33.910;151.156;2022-11-02T05:35:02;22.70;61.90
16114;DHT22;8161;-33.910;151.156;2022-11-02T05:37:29;22.70;63.30
16114;DHT22;8161;-33.910;151.156;2022-11-02T05:39:57;23.10;63.20
16114;DHT22;8161;-33.910;151.156;2022-11-02T05:42:24;22.60;62.70
16114;DHT22;8161;-33.910;151.156;2022-11-02T05:44:51;22.60;61.20
16114;DHT22;8161;-33.910;151.156;2022-11-02T05:47:19;22.70;61.80
16114;DHT22;8161;-33.910;151.156;2022-11-02T05:49:46;22.60;63.30
16114;DHT22;8161;-33.910;151.156;2022-11-02T05:52:13;22.70;64.50
16114;DHT22;8161;-33.910;151.156;2022-11-02T05:54:41;22.90;65.30
16114;DHT22;8161;-33.910;151.156;2022-11-02T05:57:08;23.00;64.10
16114;DHT22;8161;-33.910;151.156;2022-11-02T05:59:35;22.80;63.00
16114;DHT22;8161;-33.910;151.156;2022-11-02T06:02:02;22.70;63.80
16114;DHT22;8161;-33.910;151.156;2022-11-02T06:04:30;22.40;59.20
16114;DHT22;8161;-33.910;151.156;2022-11-02T06:06:57;22.30;59.70
16114;DHT22;8161;-33.910;151.156;2022-11-02T06:09:24;22.50;61.20
16114;DHT22;8161;-33.910;151.156;2022-11-02T06:11:54;22.60;60.50
16114;DHT22;8161;-33.910;151.156;2022-11-02T06:14:21;22.60;61.70
16114;DHT22;8161;-33.910;151.156;2022-11-02T06:16:49;22.60;60.80
16114;DHT22;8161;-33.910;151.156;2022-11-02T06:19:16;22.80;61.70
16114;DHT22;8161;-33.910;151.156;2022-11-02T06:21:43;22.80;61.80
16114;DHT22;8161;-33.910;151.156;2022-11-02T06:24:11;23.00;62.90
16114;DHT22;8161;-33.910;151.156;2022-11-02T06:26:39;22.90;62.40
16114;DHT22;8161;-33.910;151.156;2022-11-02T06:29:06;22.50;63.40
16114;DHT22;8161;-33.910;151.156;2022-11-02T06:31:33;21.90;65.00
16114;DHT22;8161;-33.910;151.156;2022-11-02T06:34:01;21.60;66.10
16114;DHT22;8161;-33.910;151.156;2022-11-02T06:36:28;21.60;66.20
16114;DHT22;8161;-33.910;151.156;2022-11-02T06:38:55;21.90;66.90
16114;DHT22;8161;-33.910;151.156;2022-11-02T06:41:23;22.20;67.40
16114;DHT22;8161;-33.910;151.156;2022-11-02T06:43:51;22.30;66.70
16114;DHT22;8161;-33.910;151.156;2022-11-02T06:46:21;22.10;66.60
16114;DHT22;8161;-33.910;151.156;2022-11-02T06:48:48;22.20;65.60
16114;DHT22;8161;-33.910;151.156;2022-11-02T06:51:18;22.00;67.70
16114;DHT22;8161;-33.910;151.156;2022-11-02T06:53:46;22.00;65.80
16114;DHT22;8161;-33.910;151.156;2022-11-02T06:56:13;21.70;63.20
16114;DHT22;8161;-33.910;151.156;2022-11-02T06:58:40;21.40;64.30
16114;DHT22;8161;-33.910;151.156;2022-11-02T07:01:08;21.10;68.80
16114;DHT22;8161;-33.910;151.156;2022-11-02T07:03:35;21.30;65.40
16114;DHT22;8161;-33.910;151.156;2022-11-02T07:06:03;21.20;66.00
16114;DHT22;8161;-33.910;151.156;2022-11-02T07:08:30;21.40;66.90
16114;DHT22;8161;-33.910;151.156;2022-11-02T07:10:58;21.30;68.40
16114;DHT22;8161;-33.910;151.156;2022-11-02T07:13:25;21.30;69.20
16114;DHT22;8161;-33.910;151.156;2022-11-02T07:15:53;21.40;69.50
16114;DHT22;8161;-33.910;151.156;2022-11-02T07:18:22;21.00;73.50
16114;DHT22;8161;-33.910;151.156;2022-11-02T07:20:49;20.90;73.10
16114;DHT22;8161;-33.910;151.156;2022-11-02T07:23:17;21.60;71.40
16114;DHT22;8161;-33.910;151.156;2022-11-02T07:25:49;21.20;68.00
16114;DHT22;8161;-33.910;151.156;2022-11-02T07:28:16;21.60;66.60
16114;DHT22;8161;-33.910;151.156;2022-11-02T07:30:44;21.20;66.80
16114;DHT22;8161;-33.910;151.156;2022-11-02T07:33:12;19.00;72.60
16114;DHT22;8161;-33.910;151.156;2022-11-02T07:35:39;19.20;70.30
16114;DHT22;8161;-33.910;151.156;2022-11-02T07:38:08;18.80;71.80
16114;DHT22;8161;-33.910;151.156;2022-11-02T07:40:36;18.50;73.00
16114;DHT22;8161;-33.910;151.156;2022-11-02T07:43:05;18.40;73.20
16114;DHT22;8161;-33.910;151.156;2022-11-02T07:45:32;18.30;74.20
16114;DHT22;8161;-33.910;151.156;2022-11-02T07:48:00;18.30;75.00
16114;DHT22;8161;-33.910;151.156;2022-11-02T07:50:28;18.40;75.50
16114;DHT22;8161;-33.910;151.156;2022-11-02T07:52:56;18.30;76.00
16114;DHT22;8161;-33.910;151.156;2022-11-02T07:55:29;18.20;77.00
16114;DHT22;8161;-33.910;151.156;2022-11-02T07:58:14;18.20;77.30
16114;DHT22;8161;-33.910;151.156;2022-11-02T08:00:42;18.10;78.10
16114;DHT22;8161;-33.910;151.156;2022-11-02T08:03:10;18.00;78.60
16114;DHT22;8161;-33.910;151.156;2022-11-02T08:05:39;18.00;79.30
16114;DHT22;8161;-33.910;151.156;2022-11-02T08:08:14;18.00;79.60
16114;DHT22;8161;-33.910;151.156;2022-11-02T08:10:44;17.90;80.50
16114;DHT22;8161;-33.910;151.156;2022-11-02T08:13:14;17.70;80.10
16114;DHT22;8161;-33.910;151.156;2022-11-02T08:15:42;17.70;79.90
16114;DHT22;8161;-33.910;151.156;2022-11-02T08:18:14;17.50;84.40
16114;DHT22;8161;-33.910;151.156;2022-11-02T08:20:42;17.50;80.20
16114;DHT22;8161;-33.910;151.156;2022-11-02T08:23:12;17.40;80.80
16114;DHT22;8161;-33.910;151.156;2022-11-02T08:25:40;17.40;81.10
16114;DHT22;8161;-33.910;151.156;2022-11-02T08:28:13;17.40;81.80
16114;DHT22;8161;-33.910;151.156;2022-11-02T08:30:40;17.40;81.80
16114;DHT22;8161;-33.910;151.156;2022-11-02T08:33:10;17.30;82.40
16114;DHT22;8161;-33.910;151.156;2022-11-02T08:35:40;17.30;82.90
16114;DHT22;8161;-33.910;151.156;2022-11-02T08:38:08;17.20;83.20
16114;DHT22;8161;-33.910;151.156;2022-11-02T08:40:36;17.10;83.70
16114;DHT22;8161;-33.910;151.156;2022-11-02T08:43:08;17.00;86.40
16114;DHT22;8161;-33.910;151.156;2022-11-02T08:45:37;17.10;84.50
16114;DHT22;8161;-33.910;151.156;2022-11-02T08:48:07;17.00;85.00
16114;DHT22;8161;-33.910;151.156;2022-11-02T08:50:35;17.10;85.40
16114;DHT22;8161;-33.910;151.156;2022-11-02T08:53:02;17.00;85.70
16114;DHT22;8161;-33.910;151.156;2022-11-02T08:55:30;17.00;86.00
16114;DHT22;8161;-33.910;151.156;2022-11-02T08:57:58;16.90;86.40
16114;DHT22;8161;-33.910;151.156;2022-11-02T09:00:28;16.90;87.00
16114;DHT22;8161;-33.910;151.156;2022-11-02T09:03:07;16.90;87.10
16114;DHT22;8161;-33.910;151.156;2022-11-02T09:05:37;16.90;87.80
16114;DHT22;8161;-33.910;151.156;2022-11-02T09:08:08;16.90;88.50
16114;DHT22;8161;-33.910;151.156;2022-11-02T09:10:37;16.80;89.20
16114;DHT22;8161;-33.910;151.156;2022-11-02T09:13:06;16.80;89.10
16114;DHT22;8161;-33.910;151.156;2022-11-02T09:15:35;16.80;89.70
16114;DHT22;8161;-33.910;151.156;2022-11-02T09:18:05;16.80;89.80
16114;DHT22;8161;-33.910;151.156;2022-11-02T09:20:33;16.80;89.80
16114;DHT22;8161;-33.910;151.156;2022-11-02T09:23:01;16.80;89.90
16114;DHT22;8161;-33.910;151.156;2022-11-02T09:25:28;16.80;90.00
16114;DHT22;8161;-33.910;151.156;2022-11-02T09:27:57;16.60;90.60
16114;DHT22;8161;-33.910;151.156;2022-11-02T09:30:26;16.70;90.10
16114;DHT22;8161;-33.910;151.156;2022-11-02T09:33:04;16.00;92.20
16114;DHT22;8161;-33.910;151.156;2022-11-02T09:35:34;16.60;90.30
16114;DHT22;8161;-33.910;151.156;2022-11-02T09:38:03;16.60;90.30
16114;DHT22;8161;-33.910;151.156;2022-11-02T09:43:46;16.50;90.70
16114;DHT22;8161;-33.910;151.156;2022-11-02T09:46:44;16.50;90.90
16114;DHT22;8161;-33.910;151.156;2022-11-02T09:49:21;16.50;90.80
16114;DHT22;8161;-33.910;151.156;2022-11-02T09:51:55;16.50;91.30
16114;DHT22;8161;-33.910;151.156;2022-11-02T09:54:41;16.50;91.10
16114;DHT22;8161;-33.910;151.156;2022-11-02T09:57:15;16.60;91.00
16114;DHT22;8161;-33.910;151.156;2022-11-02T09:59:43;16.60;92.40
16114;DHT22;8161;-33.910;151.156;2022-11-02T10:13:23;16.50;92.60
16114;DHT22;8161;-33.910;151.156;2022-11-02T10:15:59;16.50;91.30
16114;DHT22;8161;-33.910;151.156;2022-11-02T10:18:31;16.60;92.60
16114;DHT22;8161;-33.910;151.156;2022-11-02T10:21:35;16.40;92.70
16114;DHT22;8161;-33.910;151.156;2022-11-02T10:23:55;16.60;92.80
16114;DHT22;8161;-33.910;151.156;2022-11-02T10:26:32;16.40;91.90
16114;DHT22;8161;-33.910;151.156;2022-11-02T10:29:16;16.40;92.10
16114;DHT22;8161;-33.910;151.156;2022-11-02T10:31:44;16.40;92.30
16114;DHT22;8161;-33.910;151.156;2022-11-02T10:34:26;16.40;92.10
16114;DHT22;8161;-33.910;151.156;2022-11-02T10:51:09;16.20;93.00
16114;DHT22;8161;-33.910;151.156;2022-11-02T10:53:56;16.20;93.20
16114;DHT22;8161;-33.910;151.156;2022-11-02T10:56:31;16.10;93.20
16114;DHT22;8161;-33.910;151.156;2022-11-02T11:01:28;16.30;94.30
16114;DHT22;8161;-33.910;151.156;2022-11-02T11:03:57;16.10;93.60
16114;DHT22;8161;-33.910;151.156;2022-11-02T11:06:34;16.10;93.70
16114;DHT22;8161;-33.910;151.156;2022-11-02T11:09:17;16.10;93.70
16114;DHT22;8161;-33.910;151.156;2022-11-02T11:12:00;16.00;93.90
16114;DHT22;8161;-33.910;151.156;2022-11-02T11:14:48;17.80;94.80
16114;DHT22;8161;-33.910;151.156;2022-11-02T11:17:28;16.00;94.20
16114;DHT22;8161;-33.910;151.156;2022-11-02T11:19:58;16.00;94.50
16114;DHT22;8161;-33.910;151.156;2022-11-02T11:22:29;16.00;94.60
16114;DHT22;8161;-33.910;151.156;2022-11-02T11:30:49;15.80;94.90
16114;DHT22;8161;-33.910;151.156;2022-11-02T11:33:27;15.80;94.80
16114;DHT22;8161;-33.910;151.156;2022-11-02T11:35:56;15.80;95.10
16114;DHT22;8161;-33.910;151.156;2022-11-02T11:38:24;15.80;95.30
16114;DHT22;8161;-33.910;151.156;2022-11-02T11:40:59;15.80;95.40
16114;DHT22;8161;-33.910;151.156;2022-11-02T11:43:29;15.80;95.40
16114;DHT22;8161;-33.910;151.156;2022-11-02T11:46:05;15.80;95.50
16114;DHT22;8161;-33.910;151.156;2022-11-02T11:48:36;15.80;95.70
16114;DHT22;8161;-33.910;151.156;2022-11-02T11:51:25;15.70;95.80
16114;DHT22;8161;-33.910;151.156;2022-11-02T11:56:33;15.70;96.90
16114;DHT22;8161;-33.910;151.156;2022-11-02T11:59:01;15.70;96.30
16114;DHT22;8161;-33.910;151.156;2022-11-02T12:01:38;15.60;97.20
16114;DHT22;8161;-33.910;151.156;2022-11-02T12:04:06;15.60;96.50
16114;DHT22;8161;-33.910;151.156;2022-11-02T12:06:45;15.50;96.60
16114;DHT22;8161;-33.910;151.156;2022-11-02T12:17:48;15.50;97.30
16114;DHT22;8161;-33.910;151.156;2022-11-02T12:26:40;15.50;97.40
16114;DHT22;8161;-33.910;151.156;2022-11-02T12:29:34;15.50;97.50
16114;DHT22;8161;-33.910;151.156;2022-11-02T12:40:24;15.40;98.10
16114;DHT22;8161;-33.910;151.156;2022-11-02T12:45:49;15.40;98.30
16114;DHT22;8161;-33.910;151.156;2022-11-02T12:51:26;15.40;98.60
16114;DHT22;8161;-33.910;151.156;2022-11-02T12:54:14;15.40;98.70
16114;DHT22;8161;-33.910;151.156;2022-11-02T12:56:53;15.40;99.00
16114;DHT22;8161;-33.910;151.156;2022-11-02T13:10:06;15.20;99.50
16114;DHT22;8161;-33.910;151.156;2022-11-02T13:12:41;15.20;99.70
16114;DHT22;8161;-33.910;151.156;2022-11-02T13:15:21;15.20;99.90
16114;DHT22;8161;-33.910;151.156;2022-11-02T13:18:51;15.20;99.90
16114;DHT22;8161;-33.910;151.156;2022-11-02T13:21:01;15.10;99.90
16114;DHT22;8161;-33.910;151.156;2022-11-02T13:23:34;15.10;99.90
16114;DHT22;8161;-33.910;151.156;2022-11-02T13:26:14;15.10;99.90
16114;DHT22;8161;-33.910;151.156;2022-11-02T13:28:49;15.10;99.90
16114;DHT22;8161;-33.910;151.156;2022-11-02T13:31:36;15.10;99.90
16114;DHT22;8161;-33.910;151.156;2022-11-02T13:34:13;15.10;99.90
16114;DHT22;8161;-33.910;151.156;2022-11-02T13:36:44;15.10;99.90
16114;DHT22;8161;-33.910;151.156;2022-11-02T13:49:51;15.20;99.90
16114;DHT22;8161;-33.910;151.156;2022-11-02T13:55:07;15.10;99.90
16114;DHT22;8161;-33.910;151.156;2022-11-02T13:57:41;15.20;99.90
16114;DHT22;8161;-33.910;151.156;2022-11-02T14:05:30;15.10;99.90
16114;DHT22;8161;-33.910;151.156;2022-11-02T14:08:04;15.00;99.90
16114;DHT22;8161;-33.910;151.156;2022-11-02T14:10:36;14.90;99.90
16114;DHT22;8161;-33.910;151.156;2022-11-02T14:13:04;14.90;99.90
16114;DHT22;8161;-33.910;151.156;2022-11-02T14:18:14;15.00;99.90
16114;DHT22;8161;-33.910;151.156;2022-11-02T14:20:44;15.00;99.90
16114;DHT22;8161;-33.910;151.156;2022-11-02T14:25:56;15.20;99.90
16114;DHT22;8161;-33.910;151.156;2022-11-02T14:28:31;14.90;99.90
16114;DHT22;8161;-33.910;151.156;2022-11-02T14:33:47;14.80;99.90
16114;DHT22;8161;-33.910;151.156;2022-11-02T14:41:49;15.30;99.90
16114;DHT22;8161;-33.910;151.156;2022-11-02T14:47:10;14.60;99.90
16114;DHT22;8161;-33.910;151.156;2022-11-02T14:49:50;14.80;99.90
16114;DHT22;8161;-33.910;151.156;2022-11-02T14:52:30;14.80;99.90
16114;DHT22;8161;-33.910;151.156;2022-11-02T14:58:01;14.70;99.90
16114;DHT22;8161;-33.910;151.156;2022-11-02T15:00:57;14.60;99.90
16114;DHT22;8161;-33.910;151.156;2022-11-02T15:22:47;14.40;99.90
16114;DHT22;8161;-33.910;151.156;2022-11-02T15:25:35;14.60;99.90
16114;DHT22;8161;-33.910;151.156;2022-11-02T15:28:19;14.40;99.90
16114;DHT22;8161;-33.910;151.156;2022-11-02T15:30:50;14.60;99.90
16114;DHT22;8161;-33.910;151.156;2022-11-02T15:33:40;14.30;99.90
16114;DHT22;8161;-33.910;151.156;2022-11-02T15:36:19;14.60;99.90
16114;DHT22;8161;-33.910;151.156;2022-11-02T15:38:49;14.40;99.90
16114;DHT22;8161;-33.910;151.156;2022-11-02T15:46:52;14.80;99.90
16114;DHT22;8161;-33.910;151.156;2022-11-02T15:54:32;14.60;99.90
16114;DHT22;8161;-33.910;151.156;2022-11-02T16:02:23;14.30;99.90
16114;DHT22;8161;-33.910;151.156;2022-11-02T16:04:59;14.20;99.90
16114;DHT22;8161;-33.910;151.156;2022-11-02T16:07:30;14.20;99.90
16114;DHT22;8161;-33.910;151.156;2022-11-02T16:10:18;14.20;99.90
16114;DHT22;8161;-33.910;151.156;2022-11-02T16:12:54;14.20;99.90
16114;DHT22;8161;-33.910;151.156;2022-11-02T16:15:21;14.20;99.90
16114;DHT22;8161;-33.910;151.156;2022-11-02T16:17:49;14.40;99.90
16114;DHT22;8161;-33.910;151.156;2022-11-02T16:20:20;14.10;99.90
16114;DHT22;8161;-33.910;151.156;2022-11-02T16:25:37;14.00;99.90
16114;DHT22;8161;-33.910;151.156;2022-11-02T16:28:17;14.10;99.90
16114;DHT22;8161;-33.910;151.156;2022-11-02T16:33:29;14.10;99.90
16114;DHT22;8161;-33.910;151.156;2022-11-02T16:35:58;14.00;99.90
16114;DHT22;8161;-33.910;151.156;2022-11-02T16:38:26;13.90;99.90
16114;DHT22;8161;-33.910;151.156;2022-11-02T16:40:55;14.00;99.90
16114;DHT22;8161;-33.910;151.156;2022-11-02T16:43:23;14.00;99.90
16114;DHT22;8161;-33.910;151.156;2022-11-02T16:45:59;14.00;99.90
16114;DHT22;8161;-33.910;151.156;2022-11-02T16:48:31;13.90;99.90
16114;DHT22;8161;-33.910;151.156;2022-11-02T16:51:16;13.90;99.90
16114;DHT22;8161;-33.910;151.156;2022-11-02T16:53:44;14.00;99.90
16114;DHT22;8161;-33.910;151.156;2022-11-02T16:56:31;13.80;99.90
16114;DHT22;8161;-33.910;151.156;2022-11-02T16:59:00;13.90;99.90
16114;DHT22;8161;-33.910;151.156;2022-11-02T17:01:37;13.90;99.90
16114;DHT22;8161;-33.910;151.156;2022-11-02T17:04:19;14.00;99.90
16114;DHT22;8161;-33.910;151.156;2022-11-02T17:06:49;13.50;99.90
16114;DHT22;8161;-33.910;151.156;2022-11-02T17:11:49;14.00;99.90
16114;DHT22;8161;-33.910;151.156;2022-11-02T17:14:21;14.00;99.90
16114;DHT22;8161;-33.910;151.156;2022-11-02T17:17:02;14.00;99.90
16114;DHT22;8161;-33.910;151.156;2022-11-02T17:22:35;14.00;99.90
16114;DHT22;8161;-33.910;151.156;2022-11-02T17:25:18;14.00;99.90
16114;DHT22;8161;-33.910;151.156;2022-11-02T17:27:46;14.00;99.90
16114;DHT22;8161;-33.910;151.156;2022-11-02T17:33:29;14.00;99.90
16114;DHT22;8161;-33.910;151.156;2022-11-02T17:36:05;13.90;99.90
16114;DHT22;8161;-33.910;151.156;2022-11-02T17:38:34;13.90;99.90
16114;DHT22;8161;-33.910;151.156;2022-11-02T17:41:01;13.80;99.90
16114;DHT22;8161;-33.910;151.156;2022-11-02T17:43:49;13.80;99.90
16114;DHT22;8161;-33.910;151.156;2022-11-02T17:46:16;13.80;99.90
16114;DHT22;8161;-33.910;151.156;2022-11-02T17:48:43;13.80;99.90
16114;DHT22;8161;-33.910;151.156;2022-11-02T17:51:11;13.90;99.90
16114;DHT22;8161;-33.910;151.156;2022-11-02T17:53:39;13.90;99.90
16114;DHT22;8161;-33.910;151.156;2022-11-02T17:56:07;13.90;99.90
16114;DHT22;8161;-33.910;151.156;2022-11-02T17:58:35;13.90;99.90
16114;DHT22;8161;-33.910;151.156;2022-11-02T18:01:06;13.90;99.90
16114;DHT22;8161;-33.910;151.156;2022-11-02T18:03:35;13.90;99.90
16114;DHT22;8161;-33.910;151.156;2022-11-02T18:06:03;13.90;99.90
16114;DHT22;8161;-33.910;151.156;2022-11-02T18:08:30;13.90;99.90
16114;DHT22;8161;-33.910;151.156;2022-11-02T18:11:17;13.90;99.90
16114;DHT22;8161;-33.910;151.156;2022-11-02T18:13:44;13.90;99.90
16114;DHT22;8161;-33.910;151.156;2022-11-02T18:16:11;13.90;99.90
16114;DHT22;8161;-33.910;151.156;2022-11-02T18:18:39;13.90;99.90
16114;DHT22;8161;-33.910;151.156;2022-11-02T18:21:10;13.90;99.90
16114;DHT22;8161;-33.910;151.156;2022-11-02T18:23:39;13.90;99.90
16114;DHT22;8161;-33.910;151.156;2022-11-02T18:26:10;13.80;99.90
16114;DHT22;8161;-33.910;151.156;2022-11-02T18:28:37;13.70;99.90
16114;DHT22;8161;-33.910;151.156;2022-11-02T18:31:06;13.70;99.90
16114;DHT22;8161;-33.910;151.156;2022-11-02T18:33:34;13.80;99.90
16114;DHT22;8161;-33.910;151.156;2022-11-02T18:36:04;13.70;99.90
16114;DHT22;8161;-33.910;151.156;2022-11-02T18:38:34;13.70;99.90
16114;DHT22;8161;-33.910;151.156;2022-11-02T18:41:06;13.70;99.90
16114;DHT22;8161;-33.910;151.156;2022-11-02T18:44:00;13.70;99.90
16114;DHT22;8161;-33.910;151.156;2022-11-02T18:46:30;13.70;99.90
16114;DHT22;8161;-33.910;151.156;2022-11-02T18:48:58;13.70;99.90
16114;DHT22;8161;-33.910;151.156;2022-11-02T18:51:26;13.60;99.90
16114;DHT22;8161;-33.910;151.156;2022-11-02T18:54:02;13.60;99.90
16114;DHT22;8161;-33.910;151.156;2022-11-02T18:56:33;13.70;99.90